createdAt,value
2018-09-06T00:01:22.099Z,9.93
2018-09-06T00:03:49.959Z,8.57
2018-09-06T00:06:17.866Z,9.37
2018-09-06T00:08:45.753Z,12.00
2018-09-06T00:11:13.628Z,12.70
2018-09-06T00:13:41.490Z,9.90
2018-09-06T00:16:09.398Z,14.50
2018-09-06T00:18:37.291Z,7.47
2018-09-06T00:21:05.886Z,9.13
2018-09-06T00:23:33.831Z,8.47
2018-09-06T00:26:01.751Z,10.73
2018-09-06T00:28:30.334Z,10.50
2018-09-06T00:30:58.320Z,10.60
2018-09-06T00:33:26.175Z,9.27
2018-09-06T00:35:54.060Z,10.17
2018-09-06T00:38:21.944Z,8.60
2018-09-06T00:40:49.811Z,11.00
2018-09-06T00:43:17.713Z,9.10
2018-09-06T00:45:45.627Z,10.10
2018-09-06T00:48:13.569Z,7.80
2018-09-06T00:50:41.542Z,11.47
2018-09-06T00:53:09.504Z,8.17
2018-09-06T00:55:37.478Z,10.07
2018-09-06T00:58:05.361Z,9.30
2018-09-06T01:00:33.260Z,10.17
2018-09-06T01:03:01.174Z,8.90
2018-09-06T01:05:29.248Z,11.57
2018-09-06T01:07:57.112Z,12.53
2018-09-06T01:10:24.983Z,10.93
2018-09-06T01:12:53.898Z,11.00
2018-09-06T01:15:21.801Z,9.00
2018-09-06T01:17:49.663Z,8.47
2018-09-06T01:20:17.547Z,8.37
2018-09-06T01:22:45.450Z,8.57
2018-09-06T01:25:13.415Z,11.60
2018-09-06T01:27:42.147Z,8.10
2018-09-06T01:30:10.043Z,12.33
2018-09-06T01:32:37.938Z,15.17
2018-09-06T01:35:05.907Z,10.63
2018-09-06T01:37:33.763Z,9.60
2018-09-06T01:40:01.639Z,10.00
2018-09-06T01:42:29.655Z,11.20
2018-09-06T01:44:57.519Z,12.20
2018-09-06T01:47:25.382Z,9.13
2018-09-06T01:49:53.314Z,10.27
2018-09-06T01:52:21.283Z,10.50
2018-09-06T01:54:49.239Z,11.90
2018-09-06T01:57:17.108Z,10.10
2018-09-06T01:59:44.976Z,9.50
2018-09-06T02:02:12.863Z,9.77
2018-09-06T02:04:40.811Z,9.60
2018-09-06T02:07:08.794Z,10.03
2018-09-06T02:09:36.747Z,10.33
2018-09-06T02:12:04.671Z,9.07
2018-09-06T02:14:32.543Z,9.53
2018-09-06T02:17:00.411Z,9.57
2018-09-06T02:19:28.326Z,10.13
2018-09-06T02:21:56.302Z,9.03
2018-09-06T02:24:24.273Z,10.00
2018-09-06T02:26:52.135Z,9.77
2018-09-06T02:29:19.998Z,11.90
2018-09-06T02:31:47.856Z,8.23
2018-09-06T02:34:15.758Z,12.00
2018-09-06T02:36:43.896Z,10.70
2018-09-06T02:39:11.892Z,8.77
2018-09-06T02:41:39.907Z,10.50
2018-09-06T02:44:08.282Z,10.47
2018-09-06T02:46:36.179Z,9.70
2018-09-06T02:49:04.035Z,11.27
2018-09-06T02:51:32.691Z,9.90
2018-09-06T02:54:00.556Z,9.97
2018-09-06T02:56:29.699Z,10.80
2018-09-06T02:58:57.591Z,10.37
2018-09-06T03:01:25.456Z,10.47
2018-09-06T03:03:53.311Z,8.83
2018-09-06T03:06:21.271Z,9.20
2018-09-06T03:08:49.143Z,10.73
2018-09-06T03:11:21.894Z,9.10
2018-09-06T03:13:49.884Z,9.63
2018-09-06T03:16:17.759Z,8.63
2018-09-06T03:18:45.647Z,9.37
2018-09-06T03:21:13.663Z,10.87
2018-09-06T03:23:41.538Z,9.30
2018-09-06T03:26:14.758Z,8.90
2018-09-06T03:28:42.759Z,10.30
2018-09-06T03:31:10.627Z,11.30
2018-09-06T03:33:38.490Z,9.33
2018-09-06T03:36:06.515Z,9.67
2018-09-06T03:38:35.565Z,11.23
2018-09-06T03:41:03.471Z,9.70
2018-09-06T03:43:31.339Z,13.07
2018-09-06T03:45:59.244Z,10.57
2018-09-06T03:48:27.129Z,11.87
2018-09-06T03:50:55.052Z,9.40
2018-09-06T03:53:23.066Z,8.73
2018-09-06T03:55:50.988Z,10.00
2018-09-06T03:58:19.794Z,11.30
2018-09-06T04:00:47.923Z,12.23
2018-09-06T04:03:15.779Z,10.13
2018-09-06T04:05:43.726Z,10.13
2018-09-06T04:08:11.659Z,10.87
2018-09-06T04:10:39.627Z,10.53
2018-09-06T04:13:07.547Z,11.57
2018-09-06T04:15:35.415Z,10.30
2018-09-06T04:18:03.357Z,13.97
2018-09-06T04:20:31.248Z,10.60
2018-09-06T04:22:59.116Z,10.23
2018-09-06T04:25:27.064Z,12.20
2018-09-06T04:27:54.947Z,11.37
2018-09-06T04:30:23.038Z,13.17
2018-09-06T04:32:50.939Z,13.07
2018-09-06T04:35:18.804Z,12.77
2018-09-06T04:37:46.699Z,12.37
2018-09-06T04:40:14.602Z,10.87
2018-09-06T04:42:42.511Z,11.73
2018-09-06T04:45:10.475Z,10.77
2018-09-06T04:47:38.366Z,11.07
2018-09-06T04:50:06.362Z,19.33
2018-09-06T04:52:34.291Z,15.63
2018-09-06T04:55:02.183Z,14.17
2018-09-06T04:57:30.068Z,14.53
2018-09-06T04:59:57.962Z,15.77
2018-09-06T05:02:25.863Z,20.17
2018-09-06T05:04:55.068Z,14.03
2018-09-06T05:07:23.726Z,11.77
2018-09-06T05:09:51.618Z,11.03
2018-09-06T05:12:19.527Z,9.03
2018-09-06T05:14:47.432Z,13.37
2018-09-06T05:17:15.387Z,11.37
2018-09-06T05:19:43.272Z,12.30
2018-09-06T05:22:11.181Z,13.43
2018-09-06T05:24:39.061Z,19.63
2018-09-06T05:27:06.966Z,13.53
2018-09-06T05:29:34.859Z,23.70
2018-09-06T05:32:02.761Z,22.43
2018-09-06T05:34:30.684Z,21.37
2018-09-06T05:36:58.691Z,17.93
2018-09-06T05:39:26.578Z,24.37
2018-09-06T05:41:54.523Z,19.90
2018-09-06T05:44:22.490Z,20.60
2018-09-06T05:46:50.360Z,25.90
2018-09-06T05:49:18.373Z,17.90
2018-09-06T05:51:52.427Z,23.07
2018-09-06T05:54:20.328Z,17.20
2018-09-06T05:56:48.260Z,20.40
2018-09-06T05:59:16.239Z,18.27
2018-09-06T06:01:44.230Z,14.60
2018-09-06T06:04:12.126Z,20.47
2018-09-06T06:06:39.999Z,13.73
2018-09-06T06:09:08.427Z,14.93
2018-09-06T06:11:36.603Z,23.40
2018-09-06T06:14:04.801Z,25.90
2018-09-06T06:16:33.031Z,14.40
2018-09-06T06:19:01.154Z,22.33
2018-09-06T06:21:29.300Z,13.07
2018-09-06T06:23:57.408Z,15.37
2018-09-06T06:26:25.520Z,15.67
2018-09-06T06:28:53.651Z,16.17
2018-09-06T06:31:21.802Z,20.53
2018-09-06T06:33:49.926Z,11.73
2018-09-06T06:36:18.059Z,17.87
2018-09-06T06:38:46.198Z,20.53
2018-09-06T06:41:14.390Z,12.63
2018-09-06T06:43:42.545Z,13.83
2018-09-06T06:46:10.727Z,12.77
2018-09-06T06:48:38.939Z,13.20
2018-09-06T06:51:07.051Z,11.30
2018-09-06T06:53:35.189Z,18.03
2018-09-06T06:56:03.535Z,16.57
2018-09-06T06:58:31.819Z,13.47
2018-09-06T07:01:00.077Z,12.63
2018-09-06T07:03:28.267Z,12.63
2018-09-06T07:05:56.413Z,16.80
2018-09-06T07:08:24.616Z,15.03
2018-09-06T07:10:52.781Z,13.33
2018-09-06T07:13:21.945Z,13.00
2018-09-06T07:15:50.185Z,15.83
2018-09-06T07:18:18.504Z,15.33
2018-09-06T07:23:43.069Z,17.73
2018-09-06T07:26:11.283Z,14.70
2018-09-06T07:31:27.456Z,16.50
2018-09-06T07:33:55.576Z,15.03
2018-09-06T07:36:23.729Z,17.60
2018-09-06T07:38:51.887Z,14.37
2018-09-06T07:41:20.071Z,15.87
2018-09-06T07:43:48.160Z,16.20
2018-09-06T07:46:16.356Z,17.33
2018-09-06T07:48:44.471Z,13.33
2018-09-06T07:51:14.729Z,13.50
2018-09-06T07:53:42.879Z,14.53
2018-09-06T07:56:10.988Z,13.10
2018-09-06T07:58:39.096Z,13.60
2018-09-06T08:01:07.198Z,11.67
2018-09-06T08:03:35.328Z,12.43
2018-09-06T08:06:03.625Z,16.37
2018-09-06T08:08:31.747Z,13.23
2018-09-06T08:10:59.885Z,20.10
2018-09-06T08:13:27.951Z,18.03
2018-09-06T08:15:56.104Z,16.57
2018-09-06T08:18:24.208Z,14.83
2018-09-06T08:20:52.328Z,18.63
2018-09-06T08:23:20.420Z,14.17
2018-09-06T08:25:48.534Z,14.93
2018-09-06T08:28:16.694Z,12.83
2018-09-06T08:30:45.333Z,18.13
2018-09-06T08:33:13.372Z,20.03
2018-09-06T08:35:41.471Z,15.70
2018-09-06T08:38:09.568Z,17.67
2018-09-06T08:40:37.808Z,19.43
2018-09-06T08:43:06.143Z,16.50
2018-09-06T08:45:34.265Z,16.90
2018-09-06T08:48:02.378Z,17.07
2018-09-06T08:50:30.524Z,18.17
2018-09-06T08:52:58.644Z,15.37
2018-09-06T08:55:26.733Z,17.57
2018-09-06T08:57:54.864Z,13.93
2018-09-06T09:00:23.071Z,18.93
2018-09-06T09:02:51.254Z,14.63
2018-09-06T09:05:19.332Z,16.30
2018-09-06T09:07:47.440Z,21.23
2018-09-06T09:10:15.546Z,16.63
2018-09-06T09:12:43.684Z,13.90
2018-09-06T09:15:11.803Z,19.07
2018-09-06T09:17:39.895Z,16.87
2018-09-06T09:20:08.007Z,15.97
2018-09-06T09:22:36.137Z,20.63
2018-09-06T09:25:04.280Z,14.80
2018-09-06T09:27:32.372Z,15.43
2018-09-06T09:30:00.467Z,15.80
2018-09-06T09:32:28.576Z,16.93
2018-09-06T09:34:56.715Z,14.80
2018-09-06T09:37:24.863Z,18.67
2018-09-06T09:39:52.960Z,19.30
2018-09-06T09:42:21.070Z,19.17
2018-09-06T09:44:49.168Z,16.43
2018-09-06T09:49:44.688Z,15.00
2018-09-06T09:52:12.779Z,18.33
2018-09-06T09:54:40.894Z,19.20
2018-09-06T09:57:09.020Z,16.67
2018-09-06T09:59:37.088Z,16.30
2018-09-06T10:02:10.527Z,16.77
2018-09-06T10:04:43.923Z,18.17
2018-09-06T10:07:17.471Z,16.47
2018-09-06T10:09:45.595Z,14.90
2018-09-06T10:12:13.783Z,15.53
2018-09-06T10:14:41.976Z,14.80
2018-09-06T10:17:10.092Z,14.10
2018-09-06T10:19:38.271Z,17.03
2018-09-06T10:22:06.417Z,18.07
2018-09-06T10:24:34.511Z,19.80
2018-09-06T10:27:02.611Z,15.83
2018-09-06T10:29:30.739Z,14.93
2018-09-06T10:31:58.861Z,17.13
2018-09-06T10:34:26.991Z,19.10
2018-09-06T10:36:55.109Z,22.13
2018-09-06T10:39:23.225Z,16.83
2018-09-06T10:41:51.324Z,15.67
2018-09-06T10:44:19.436Z,18.20
2018-09-06T10:46:47.600Z,16.37
2018-09-06T10:49:15.724Z,19.30
2018-09-06T10:51:52.615Z,14.90
2018-09-06T10:54:20.787Z,16.83
2018-09-06T10:56:48.903Z,13.07
2018-09-06T10:59:17.007Z,12.50
2018-09-06T11:01:45.126Z,9.73
2018-09-06T11:04:13.228Z,12.83
2018-09-06T11:06:41.321Z,10.93
2018-09-06T11:09:09.411Z,9.23
2018-09-06T11:11:37.535Z,9.27
2018-09-06T11:14:05.645Z,11.27
2018-09-06T11:16:34.807Z,12.77
2018-09-06T11:19:02.929Z,10.30
2018-09-06T11:21:31.107Z,13.00
2018-09-06T11:23:59.152Z,12.23
2018-09-06T11:26:27.251Z,9.43
2018-09-06T11:28:55.414Z,11.23
2018-09-06T11:31:23.544Z,9.17
2018-09-06T11:33:51.643Z,7.10
2018-09-06T11:36:19.739Z,8.40
2018-09-06T11:38:47.867Z,7.40
2018-09-06T11:41:15.972Z,8.37
2018-09-06T11:43:44.060Z,6.73
2018-09-06T11:46:12.200Z,10.43
2018-09-06T11:48:40.298Z,8.23
2018-09-06T11:51:08.865Z,8.50
2018-09-06T11:53:36.968Z,7.37
2018-09-06T11:56:05.225Z,8.27
2018-09-06T11:58:33.319Z,8.53
2018-09-06T12:01:01.415Z,8.00
2018-09-06T12:03:29.512Z,9.83
2018-09-06T12:05:57.658Z,10.47
2018-09-06T12:08:25.739Z,9.60
2018-09-06T12:10:53.859Z,10.17
2018-09-06T12:13:21.973Z,12.10
2018-09-06T12:15:50.071Z,8.80
2018-09-06T12:18:18.591Z,11.23
2018-09-06T12:20:46.694Z,8.70
2018-09-06T12:23:14.803Z,9.07
2018-09-06T12:25:43.564Z,9.83
2018-09-06T12:28:11.600Z,8.33
2018-09-06T12:30:39.732Z,8.30
2018-09-06T12:33:07.871Z,8.37
2018-09-06T12:35:35.937Z,7.97
2018-09-06T12:38:04.087Z,9.13
2018-09-06T12:40:32.187Z,6.67
2018-09-06T12:43:00.316Z,7.03
2018-09-06T12:45:28.428Z,8.00
2018-09-06T12:47:56.517Z,7.30
2018-09-06T12:50:24.636Z,8.80
2018-09-06T12:52:52.731Z,7.03
2018-09-06T12:55:20.851Z,7.67
2018-09-06T12:57:48.940Z,8.47
2018-09-06T13:00:17.059Z,7.70
2018-09-06T13:02:45.208Z,7.57
2018-09-06T13:05:13.409Z,10.37
2018-09-06T13:07:42.555Z,7.20
2018-09-06T13:10:10.740Z,7.80
2018-09-06T13:12:38.901Z,10.13
2018-09-06T13:15:07.024Z,9.07
2018-09-06T13:17:35.144Z,8.77
2018-09-06T13:20:03.446Z,11.07
2018-09-06T13:22:31.593Z,10.87
2018-09-06T13:24:59.700Z,10.97
2018-09-06T13:27:29.660Z,10.87
2018-09-06T13:29:57.865Z,12.27
2018-09-06T13:32:25.979Z,13.20
2018-09-06T13:34:55.137Z,15.23
2018-09-06T13:37:23.240Z,14.87
2018-09-06T13:39:51.356Z,11.63
2018-09-06T13:42:21.044Z,13.00
2018-09-06T13:44:49.265Z,12.13
2018-09-06T13:47:17.440Z,11.53
2018-09-06T13:49:45.613Z,10.80
2018-09-06T13:52:13.850Z,12.10
2018-09-06T13:54:41.875Z,10.23
2018-09-06T13:57:10.076Z,14.30
2018-09-06T13:59:38.221Z,9.73
2018-09-06T14:02:06.635Z,11.50
2018-09-06T14:04:34.846Z,12.10
2018-09-06T14:07:02.963Z,10.10
2018-09-06T14:09:31.536Z,14.50
2018-09-06T14:11:59.697Z,12.33
2018-09-06T14:14:27.847Z,12.07
2018-09-06T14:16:55.949Z,10.77
2018-09-06T14:19:24.107Z,16.10
2018-09-06T14:21:52.264Z,9.90
2018-09-06T14:24:20.465Z,10.30
2018-09-06T14:26:48.624Z,12.83
2018-09-06T14:29:16.711Z,10.57
2018-09-06T14:31:44.851Z,14.77
2018-09-06T14:34:12.954Z,15.63
2018-09-06T14:36:41.156Z,13.07
2018-09-06T14:39:09.428Z,12.33
2018-09-06T14:41:37.504Z,9.10
2018-09-06T14:44:05.885Z,10.80
2018-09-06T14:46:34.177Z,12.67
2018-09-06T14:49:02.500Z,11.77
2018-09-06T14:51:30.763Z,15.03
2018-09-06T14:53:58.868Z,11.00
2018-09-06T14:56:27.019Z,13.07
2018-09-06T14:58:55.231Z,13.83
2018-09-06T15:01:23.386Z,10.47
2018-09-06T15:03:51.484Z,10.23
2018-09-06T15:06:19.633Z,11.80
2018-09-06T15:08:47.911Z,11.70
2018-09-06T15:11:16.106Z,16.10
2018-09-06T15:13:44.324Z,11.20
2018-09-06T15:16:12.392Z,11.20
2018-09-06T15:18:40.612Z,13.27
2018-09-06T15:21:08.982Z,12.23
2018-09-06T15:23:37.104Z,9.70
2018-09-06T15:26:05.312Z,11.50
2018-09-06T15:28:33.503Z,12.00
2018-09-06T15:31:01.787Z,10.83
2018-09-06T15:33:29.876Z,13.50
2018-09-06T15:35:58.036Z,11.30
2018-09-06T15:38:26.296Z,10.53
2018-09-06T15:40:54.798Z,13.00
2018-09-06T15:43:22.964Z,13.87
2018-09-06T15:45:51.072Z,10.07
2018-09-06T15:48:19.199Z,11.50
2018-09-06T15:50:48.168Z,10.60
2018-09-06T15:53:16.371Z,12.43
2018-09-06T15:55:44.591Z,11.30
2018-09-06T15:58:12.696Z,14.77
2018-09-06T16:00:40.881Z,12.87
2018-09-06T16:03:09.136Z,10.40
2018-09-06T16:05:37.228Z,13.70
2018-09-06T16:08:05.527Z,12.63
2018-09-06T16:10:33.752Z,13.07
2018-09-06T16:13:01.852Z,13.67
2018-09-06T16:15:29.944Z,11.23
2018-09-06T16:17:58.248Z,12.57
2018-09-06T16:20:26.359Z,12.30
2018-09-06T16:22:54.459Z,13.93
2018-09-06T16:25:22.580Z,12.40
2018-09-06T16:27:50.787Z,14.30
2018-09-06T16:30:19.049Z,25.23
2018-09-06T16:32:47.097Z,13.23
2018-09-06T16:35:15.208Z,14.23
2018-09-06T16:37:43.380Z,12.80
2018-09-06T16:40:11.467Z,10.00
2018-09-06T16:42:40.243Z,9.57
2018-09-06T16:45:08.265Z,9.60
2018-09-06T16:47:36.364Z,10.37
2018-09-06T16:50:04.568Z,10.83
2018-09-06T16:52:32.726Z,11.63
2018-09-06T16:55:00.748Z,9.93
2018-09-06T16:57:28.864Z,9.83
2018-09-06T16:59:56.951Z,11.43
2018-09-06T17:02:25.040Z,7.63
2018-09-06T17:04:53.263Z,10.73
2018-09-06T17:07:21.375Z,13.67
2018-09-06T17:09:49.615Z,8.27
2018-09-06T17:12:17.816Z,9.80
2018-09-06T17:14:45.956Z,11.23
2018-09-06T17:17:14.056Z,8.67
2018-09-06T17:19:42.136Z,9.50
2018-09-06T17:22:10.359Z,11.23
2018-09-06T17:24:38.464Z,9.43
2018-09-06T17:27:06.651Z,9.83
2018-09-06T17:29:34.788Z,11.70
2018-09-06T17:32:03.138Z,9.50
2018-09-06T17:34:32.023Z,10.77
2018-09-06T17:37:00.156Z,9.93
2018-09-06T17:39:28.248Z,9.17
2018-09-06T17:41:56.461Z,10.60
2018-09-06T17:44:24.572Z,10.97
2018-09-06T17:46:52.751Z,9.80
2018-09-06T17:49:20.859Z,8.83
2018-09-06T17:51:57.163Z,10.97
2018-09-06T17:54:25.276Z,12.80
2018-09-06T17:56:53.401Z,9.83
2018-09-06T17:59:21.509Z,13.00
2018-09-06T18:01:49.691Z,8.07
2018-09-06T18:04:17.807Z,9.67
2018-09-06T18:06:46.091Z,8.60
2018-09-06T18:09:14.493Z,8.93
2018-09-06T18:11:43.187Z,12.00
2018-09-06T18:14:12.022Z,9.40
2018-09-06T18:16:40.331Z,8.20
2018-09-06T18:19:08.443Z,8.20
2018-09-06T18:21:36.545Z,10.87
2018-09-06T18:24:04.715Z,10.03
2018-09-06T18:26:32.823Z,10.47
2018-09-06T18:29:00.912Z,8.97
2018-09-06T18:31:29.037Z,9.60
2018-09-06T18:33:57.160Z,8.93
2018-09-06T18:36:25.366Z,11.00
2018-09-06T18:38:53.469Z,9.83
2018-09-06T18:41:21.615Z,11.53
2018-09-06T18:43:49.749Z,9.70
2018-09-06T18:46:17.834Z,9.07
2018-09-06T18:48:46.287Z,11.30
2018-09-06T18:51:14.364Z,10.70
2018-09-06T18:53:42.482Z,11.53
2018-09-06T18:56:10.731Z,11.83
2018-09-06T18:58:39.408Z,10.67
2018-09-06T19:01:07.657Z,10.87
2018-09-06T19:03:35.956Z,13.13
2018-09-06T19:06:04.085Z,12.93
2018-09-06T19:08:34.019Z,10.87
2018-09-06T19:11:02.247Z,14.27
2018-09-06T19:13:37.063Z,14.40
2018-09-06T19:16:05.328Z,16.23
2018-09-06T19:18:33.511Z,17.77
2018-09-06T19:21:01.699Z,14.50
2018-09-06T19:23:29.909Z,13.47
2018-09-06T19:25:58.044Z,11.87
2018-09-06T19:28:26.179Z,12.87
2018-09-06T19:30:54.307Z,15.83
2018-09-06T19:33:22.443Z,17.17
2018-09-06T19:35:50.569Z,14.33
2018-09-06T19:38:18.688Z,13.63
2018-09-06T19:40:46.813Z,21.37
2018-09-06T19:43:14.963Z,18.83
2018-09-06T19:45:43.135Z,23.87
2018-09-06T19:48:11.251Z,17.93
2018-09-06T19:50:39.480Z,20.67
2018-09-06T19:53:07.685Z,23.03
2018-09-06T19:55:35.833Z,15.07
2018-09-06T19:58:04.046Z,15.03
2018-09-06T20:00:32.184Z,30.23
2018-09-06T20:03:00.353Z,20.93
2018-09-06T20:05:28.462Z,18.73
2018-09-06T20:07:56.665Z,21.30
2018-09-06T20:10:24.871Z,21.03
2018-09-06T20:12:53.071Z,15.87
2018-09-06T20:15:21.157Z,16.50
2018-09-06T20:17:49.308Z,18.23
2018-09-06T20:20:17.464Z,17.30
2018-09-06T20:22:45.659Z,19.97
2018-09-06T20:25:13.785Z,17.47
2018-09-06T20:27:41.928Z,17.77
2018-09-06T20:30:10.035Z,17.80
2018-09-06T20:32:38.237Z,17.03
2018-09-06T20:35:06.407Z,19.43
2018-09-06T20:37:34.507Z,17.43
2018-09-06T20:40:02.667Z,19.67
2018-09-06T20:42:30.836Z,21.53
2018-09-06T20:44:59.000Z,22.67
2018-09-06T20:47:27.238Z,23.57
2018-09-06T20:49:55.456Z,22.47
2018-09-06T20:52:23.588Z,26.17
2018-09-06T20:54:51.715Z,26.33
2018-09-06T20:57:19.872Z,30.83
2018-09-06T20:59:47.965Z,28.20
2018-09-06T21:02:25.487Z,29.07
2018-09-06T21:04:54.188Z,31.63
2018-09-06T21:07:22.755Z,26.80
2018-09-06T21:09:50.784Z,26.67
2018-09-06T21:12:18.896Z,27.60
2018-09-06T21:14:46.780Z,32.23
2018-09-06T21:17:14.891Z,31.87
2018-09-06T21:19:42.996Z,28.50
2018-09-06T21:22:11.127Z,25.13
2018-09-06T21:24:39.236Z,28.03
2018-09-06T21:27:07.476Z,26.93
2018-09-06T21:29:35.571Z,23.80
2018-09-06T21:32:05.208Z,30.57
2018-09-06T21:34:33.318Z,27.33
2018-09-06T21:37:01.434Z,30.90
2018-09-06T21:39:29.552Z,28.23
2018-09-06T21:41:57.760Z,32.37
2018-09-06T21:44:25.856Z,34.27
2018-09-06T21:46:54.005Z,36.87
2018-09-06T21:49:22.175Z,35.17
2018-09-06T21:51:53.044Z,36.10
2018-09-06T21:54:21.180Z,36.47
2018-09-06T21:56:49.291Z,39.13
2018-09-06T21:59:17.452Z,41.40
2018-09-06T22:01:45.434Z,42.53
2018-09-06T22:04:13.378Z,37.97
2018-09-06T22:06:41.251Z,36.70
2018-09-06T22:09:10.618Z,43.90
2018-09-06T22:11:38.527Z,43.67
2018-09-06T22:14:06.407Z,41.57
2018-09-06T22:16:34.564Z,48.00
2018-09-06T22:19:02.514Z,45.20
2018-09-06T22:21:30.394Z,46.27
2018-09-06T22:23:58.303Z,47.53
2018-09-06T22:26:26.235Z,47.40
2018-09-06T22:28:54.189Z,47.63
2018-09-06T22:31:22.131Z,48.20
2018-09-06T22:33:50.027Z,47.33
2018-09-06T22:36:17.981Z,44.83
2018-09-06T22:38:45.995Z,42.83
2018-09-06T22:41:13.923Z,42.70
2018-09-06T22:43:41.901Z,45.80
2018-09-06T22:46:09.779Z,44.83
2018-09-06T22:48:39.078Z,48.83
2018-09-06T22:51:06.983Z,45.60
2018-09-06T22:53:34.913Z,46.47
2018-09-06T22:56:03.447Z,44.17
2018-09-06T22:58:31.419Z,43.97
2018-09-06T23:00:59.299Z,42.10
2018-09-06T23:03:32.554Z,42.17
2018-09-06T23:06:00.431Z,43.17
2018-09-06T23:08:28.311Z,42.97
2018-09-06T23:10:56.292Z,43.80
2018-09-06T23:13:24.211Z,48.50
2018-09-06T23:15:52.119Z,42.70
2018-09-06T23:18:20.027Z,47.80
2018-09-06T23:20:47.995Z,49.90
2018-09-06T23:23:15.863Z,48.90
2018-09-06T23:25:43.751Z,48.37
2018-09-06T23:28:11.618Z,51.53
2018-09-06T23:30:39.551Z,50.13
2018-09-06T23:33:07.614Z,48.03
2018-09-06T23:35:35.495Z,48.60
2018-09-06T23:38:03.411Z,49.53
2018-09-06T23:40:35.657Z,47.10
2018-09-06T23:43:03.547Z,49.07
2018-09-06T23:45:31.471Z,48.70
2018-09-06T23:47:59.347Z,47.80
2018-09-06T23:50:27.211Z,53.00
2018-09-06T23:52:56.122Z,52.63
2018-09-06T23:55:23.975Z,53.17
2018-09-06T23:57:52.858Z,48.03
